Time;durP1;ratioP1;P1;durP2;ratioP2;P2;SDS_P1;SDS_P2;PMS_P1;PMS_P2;Temp;Humidity;BMP_temperature;BMP_pressure;BME280_temperature;BME280_humidity;BME280_pressure;Samples;Min_cycle;Max_cycle;Signal;HPM_P1;HPM_P2
2023/12/04 00:00:24;;;;;;;0.88;0.70;;;;;;;0.87;100.00;101326.22;5080249;27;97407;-28
2023/12/04 00:02:49;;;;;;;1.02;0.80;;;;;;;0.90;100.00;101331.50;5098340;27;96612;-27
2023/12/04 00:05:15;;;;;;;2.42;1.17;;;;;;;0.89;100.00;101332.44;5098301;27;96674;-28
2023/12/04 00:07:40;;;;;;;0.47;0.47;;;;;;;0.89;100.00;101330.63;5098695;27;96802;-28
2023/12/04 00:10:06;;;;;;;0.98;0.80;;;;;;;0.87;100.00;101324.44;5098377;27;97316;-27
2023/12/04 00:12:31;;;;;;;1.45;0.95;;;;;;;0.92;100.00;101327.91;5079106;27;100924;-27
2023/12/04 00:14:57;;;;;;;0.93;0.68;;;;;;;0.96;100.00;101326.97;5098375;27;97224;-27
2023/12/04 00:17:22;;;;;;;1.52;0.90;;;;;;;0.89;100.00;101313.75;5098578;27;96833;-27
2023/12/04 00:19:47;;;;;;;0.25;0.25;;;;;;;0.94;100.00;101315.44;5097993;27;99190;-27
2023/12/04 00:22:13;;;;;;;1.10;0.85;;;;;;;0.92;100.00;101311.03;5098430;27;97488;-27
2023/12/04 00:24:38;;;;;;;1.75;1.08;;;;;;;0.92;100.00;101313.72;5098265;27;96479;-28
2023/12/04 00:27:04;;;;;;;0.90;0.63;;;;;;;0.96;100.00;101315.44;5097960;27;96940;-27
2023/12/04 00:29:29;;;;;;;2.22;1.13;;;;;;;0.97;100.00;101314.50;5097448;27;98944;-27
2023/12/04 00:31:56;;;;;;;0.00;0.00;;;;;;;1.01;100.00;101308.25;5097971;27;97272;-27
2023/12/04 00:34:22;;;;;;;1.55;1.20;;;;;;;0.99;100.00;101299.38;5098078;27;96740;-27
2023/12/04 00:36:47;;;;;;;9.60;1.13;;;;;;;1.00;100.00;101302.03;5098081;27;96805;-27
2023/12/04 00:39:13;;;;;;;1.88;1.20;;;;;;;1.02;100.00;101294.00;5097579;27;99238;-27
2023/12/04 00:41:38;;;;;;;2.47;1.33;;;;;;;1.02;100.00;101294.00;5097921;27;97234;-27
2023/12/04 00:44:03;;;;;;;3.90;2.22;;;;;;;1.00;100.00;101282.47;5097827;27;96622;-27
2023/12/04 00:46:29;;;;;;;1.95;1.15;;;;;;;1.02;100.00;101288.66;5098584;27;96856;-27
2023/12/04 00:48:54;;;;;;;0.28;0.28;;;;;;;1.00;100.00;101282.47;5097457;27;99650;-27
2023/12/04 00:51:19;;;;;;;0.57;0.57;;;;;;;0.99;100.00;101275.38;5097603;27;97222;-27
2023/12/04 00:53:45;;;;;;;0.77;0.70;;;;;;;1.03;100.00;101271.75;5096918;27;96497;-27
2023/12/04 00:56:10;;;;;;;0.60;0.45;;;;;;;1.02;100.00;101275.31;5097680;27;96730;-27
2023/12/04 00:58:36;;;;;;;2.25;1.02;;;;;;;0.99;100.00;101264.72;5097057;27;97868;-27
2023/12/04 01:01:01;;;;;;;1.38;0.90;;;;;;;1.01;100.00;101261.09;5096789;27;97302;-27
2023/12/04 01:03:26;;;;;;;1.13;0.77;;;;;;;0.99;100.00;101252.25;5097748;27;96613;-27
2023/12/04 01:05:52;;;;;;;0.75;0.52;;;;;;;1.03;100.00;101271.75;5097705;27;96757;-27
2023/12/04 01:08:17;;;;;;;0.52;0.50;;;;;;;1.06;100.00;101271.72;5097274;27;97336;-27
2023/12/04 01:10:43;;;;;;;1.75;0.70;;;;;;;1.08;100.00;101274.38;5097835;27;97226;-27
2023/12/04 01:13:08;;;;;;;0.93;0.90;;;;;;;1.02;100.00;101262.84;5097264;27;96625;-27
2023/12/04 01:15:34;;;;;;;1.80;1.23;;;;;;;1.04;100.00;101252.16;5097320;27;96793;-27
2023/12/04 01:18:00;;;;;;;1.38;1.08;;;;;;;1.09;100.00;101250.31;5096572;27;99331;-27
2023/12/04 01:20:26;;;;;;;1.10;0.43;;;;;;;1.12;100.00;101260.03;5097011;27;99203;-28
2023/12/04 01:22:51;;;;;;;0.75;0.55;;;;;;;1.11;100.00;101248.50;5078501;27;96651;-27
2023/12/04 01:25:17;;;;;;;1.15;0.98;;;;;;;1.10;100.00;101243.19;5097402;27;96795;-27
2023/12/04 01:27:42;;;;;;;0.90;0.68;;;;;;;1.08;100.00;101240.56;5097022;27;97955;-27
2023/12/04 01:30:08;;;;;;;2.45;1.45;;;;;;;1.14;100.00;101248.44;5097150;27;101893;-27
2023/12/04 01:32:34;;;;;;;1.85;1.08;;;;;;;1.15;100.00;101244.88;5078689;27;96627;-28
2023/12/04 01:35:01;;;;;;;0.47;0.40;;;;;;;1.17;100.00;101237.75;5078884;27;96849;-27
2023/12/04 01:37:26;;;;;;;0.30;0.30;;;;;;;1.13;100.00;101214.69;5096999;27;97509;-26
2023/12/04 01:39:52;;;;;;;1.75;1.05;;;;;;;1.21;100.00;101230.56;5096883;27;97763;-27
2023/12/04 01:42:17;;;;;;;0.77;0.75;;;;;;;1.20;100.00;101235.03;5096576;27;96865;-26
2023/12/04 01:44:42;;;;;;;1.85;0.70;;;;;;;1.22;100.00;101224.34;5097167;27;96784;-27
2023/12/04 01:47:08;;;;;;;1.63;1.08;;;;;;;1.13;100.00;101211.16;5096565;27;99537;-27
2023/12/04 01:49:34;;;;;;;2.03;0.85;;;;;;;1.22;100.00;101219.88;5077681;27;100693;-27
2023/12/04 01:51:59;;;;;;;1.05;1.00;;;;;;;1.24;100.00;101214.47;5096521;27;96722;-27
2023/12/04 01:54:25;;;;;;;2.65;1.02;;;;;;;1.24;100.00;101212.72;5096784;27;96682;-27
2023/12/04 01:56:51;;;;;;;1.55;0.77;;;;;;;1.19;100.00;101203.00;5077757;27;100828;-27
2023/12/04 01:59:16;;;;;;;1.40;1.00;;;;;;;1.24;100.00;101206.47;5096771;27;99093;-27
2023/12/04 02:01:42;;;;;;;0.52;0.25;;;;;;;1.22;100.00;101201.19;5096934;27;96767;-28
2023/12/04 02:04:08;;;;;;;0.80;0.20;;;;;;;1.21;100.00;101191.41;5096563;27;96822;-27
2023/12/04 02:06:34;;;;;;;0.60;0.50;;;;;;;1.21;100.00;101191.41;5095949;27;98172;-29
2023/12/04 02:09:00;;;;;;;0.75;0.75;;;;;;;1.24;100.00;101191.38;5096475;27;97941;-27
2023/12/04 02:11:25;;;;;;;1.15;0.60;;;;;;;1.26;100.00;101194.00;5096245;27;96604;-27
2023/12/04 02:13:51;;;;;;;1.17;0.90;;;;;;;1.26;100.00;101194.91;5096395;27;96808;-27
2023/12/04 02:16:19;;;;;;;2.40;1.10;;;;;;;1.27;100.00;101188.66;5096444;27;97997;-27
2023/12/04 02:18:45;;;;;;;1.67;1.15;;;;;;;1.25;100.00;101186.91;5077526;27;101417;-27
2023/12/04 02:21:10;;;;;;;0.43;0.43;;;;;;;1.26;100.00;101178.00;5096063;27;96696;-27
2023/12/04 02:23:35;;;;;;;0.70;0.70;;;;;;;1.32;100.00;101179.69;5096881;27;96868;-27
2023/12/04 02:26:10;;;;;;;2.08;1.58;;;;;;;1.30;100.00;101168.16;5095960;27;97856;-27
2023/12/04 02:28:36;;;;;;;2.08;0.80;;;;;;;1.30;100.00;101169.03;5077434;27;101294;-27
2023/12/04 02:31:05;;;;;;;1.13;0.93;;;;;;;1.26;100.00;101159.31;5077128;27;96553;-27
2023/12/04 02:33:31;;;;;;;2.40;1.40;;;;;;;1.31;100.00;101162.81;5077789;27;96834;-27
2023/12/04 02:35:59;;;;;;;0.70;0.68;;;;;;;1.32;100.00;101156.53;5077307;27;101862;-27
2023/12/04 02:38:25;;;;;;;2.33;1.60;;;;;;;1.33;100.00;101165.41;5095823;27;97289;-27
2023/12/04 02:40:50;;;;;;;0.93;0.90;;;;;;;1.33;100.00;101157.41;5060574;27;96557;-27
2023/12/04 02:43:16;;;;;;;2.58;1.42;;;;;;;1.33;99.67;101152.94;5096173;27;96763;-27
2023/12/04 02:45:41;;;;;;;0.60;0.55;;;;;;;1.31;99.70;101149.47;5095650;27;99634;-27
2023/12/04 02:48:07;;;;;;;1.65;1.08;;;;;;;1.36;99.41;101149.34;5096209;27;97762;-27
2023/12/04 02:50:33;;;;;;;1.38;0.60;;;;;;;1.35;99.50;101145.81;5077309;27;96612;-27
2023/12/04 02:52:58;;;;;;;0.30;0.30;;;;;;;1.30;98.88;101130.81;5095376;27;96880;-28
2023/12/04 02:55:24;;;;;;;0.52;0.47;;;;;;;1.36;99.13;101136.00;5076469;27;101300;-27
2023/12/04 02:57:49;;;;;;;1.80;1.42;;;;;;;1.38;99.37;101127.09;5095907;27;97498;-27
2023/12/04 03:00:15;;;;;;;0.68;0.63;;;;;;;1.38;98.93;101129.75;5095850;27;96524;-27
2023/12/04 03:02:40;;;;;;;1.25;1.02;;;;;;;1.36;98.63;101125.31;5095758;27;96926;-27
2023/12/04 03:05:06;;;;;;;2.35;1.08;;;;;;;1.38;97.49;101124.41;5095755;27;97363;-27
2023/12/04 03:07:31;;;;;;;0.38;0.38;;;;;;;1.38;97.52;101120.84;5095075;27;98745;-26
2023/12/04 03:09:57;;;;;;;0.60;0.55;;;;;;;1.40;98.74;101114.56;5095808;27;96449;-27
2023/12/04 03:12:22;;;;;;;0.38;0.38;;;;;;;1.36;97.71;101104.88;5096441;27;96765;-27
2023/12/04 03:14:47;;;;;;;2.08;1.13;;;;;;;1.41;98.85;101107.47;5095501;27;97763;-27
2023/12/04 03:17:13;;;;;;;3.25;2.10;;;;;;;1.38;97.67;101097.72;5095414;27;97738;-27
2023/12/04 03:19:38;;;;;;;1.63;1.52;;;;;;;1.40;97.34;101098.56;5095421;27;96457;-27
2023/12/04 03:22:03;;;;;;;1.17;0.90;;;;;;;1.40;97.11;101092.34;5095563;27;96859;-27
2023/12/04 03:24:29;;;;;;;0.17;0.17;;;;;;;1.45;97.13;101087.78;5098680;27;98232;-27
2023/12/04 03:26:54;;;;;;;0.73;0.73;;;;;;;1.45;96.56;101088.69;5099003;27;101967;-27
2023/12/04 03:29:19;;;;;;;0.40;0.40;;;;;;;1.44;97.06;101081.56;5099019;27;96584;-28
2023/12/04 03:31:45;;;;;;;0.20;0.20;;;;;;;1.45;97.01;101072.69;5099363;27;96752;-27
2023/12/04 03:34:10;;;;;;;2.00;1.52;;;;;;;1.45;96.18;101072.69;5098944;27;97301;-27
2023/12/04 03:36:35;;;;;;;1.23;0.82;;;;;;;1.45;96.31;101071.78;5080241;27;99204;-27
2023/12/04 03:39:01;;;;;;;3.92;0.80;;;;;;;1.42;96.17;101059.38;5099067;27;96516;-27
2023/12/04 03:41:26;;;;;;;1.48;0.65;;;;;;;1.43;95.93;101049.56;5099243;27;96949;-27
2023/12/04 03:43:51;;;;;;;2.58;1.83;;;;;;;1.44;95.35;101046.00;5098088;27;97392;-27
2023/12/04 03:46:17;;;;;;;0.82;0.60;;;;;;;1.43;95.53;101036.22;5098767;27;97599;-27
2023/12/04 03:48:42;;;;;;;1.38;0.40;;;;;;;1.50;94.91;101045.84;5098647;27;96613;-27
2023/12/04 03:51:08;;;;;;;1.02;0.70;;;;;;;1.51;95.19;101049.44;5098676;27;96904;-29
2023/12/04 03:53:33;;;;;;;3.05;0.93;;;;;;;1.50;95.03;101043.19;5097787;27;97876;-27
2023/12/04 03:55:59;;;;;;;2.65;0.85;;;;;;;1.50;93.85;101040.53;5098286;27;99092;-27
2023/12/04 03:58:24;;;;;;;0.70;0.70;;;;;;;1.52;93.20;101038.69;5098552;27;96527;-28
2023/12/04 04:00:49;;;;;;;2.00;1.23;;;;;;;1.54;94.31;101036.88;5099246;27;96509;-27
2023/12/04 04:03:15;;;;;;;0.38;0.35;;;;;;;1.45;93.19;101013.06;5098418;27;97866;-27
2023/12/04 04:05:40;;;;;;;1.83;1.23;;;;;;;1.52;94.73;101030.69;5098487;27;97785;-27
2023/12/04 04:08:07;;;;;;;0.47;0.22;;;;;;;1.54;94.92;101028.00;5097925;27;96593;-27
2023/12/04 04:10:32;;;;;;;0.08;0.05;;;;;;;1.51;94.43;101014.75;5098601;27;96760;-28
2023/12/04 04:12:58;;;;;;;2.05;0.70;;;;;;;1.52;94.13;101019.16;5098234;27;97444;-27
2023/12/04 04:15:23;;;;;;;1.45;1.02;;;;;;;1.52;94.76;101013.81;5098323;27;97824;-27
2023/12/04 04:17:49;;;;;;;0.85;0.70;;;;;;;1.53;92.52;101018.25;5098689;27;96586;-27
2023/12/04 04:20:14;;;;;;;0.50;0.50;;;;;;;1.54;94.37;101007.53;5098528;27;96640;-27
2023/12/04 04:22:40;;;;;;;0.85;0.47;;;;;;;1.50;94.85;101000.47;5097620;27;99387;-27
2023/12/04 04:25:09;;;;;;;0.73;0.60;;;;;;;1.51;93.51;101002.25;5079670;27;101218;-28
2023/12/04 04:27:35;;;;;;;1.48;0.73;;;;;;;1.55;92.84;101003.06;5079498;27;97554;-27
2023/12/04 04:30:01;;;;;;;1.27;0.52;;;;;;;1.55;92.63;100998.63;5079590;27;96805;-27
2023/12/04 04:32:27;;;;;;;0.17;0.17;;;;;;;1.55;93.07;100993.28;5097580;27;97334;-27
2023/12/04 04:34:52;;;;;;;1.75;1.05;;;;;;;1.54;92.54;100995.97;5097881;27;97914;-28
2023/12/04 04:37:18;;;;;;;2.00;0.57;;;;;;;1.50;91.99;100987.13;5097829;27;96621;-27
2023/12/04 04:39:44;;;;;;;1.13;0.63;;;;;;;1.50;92.08;100987.13;5098179;27;96810;-27
2023/12/04 04:42:09;;;;;;;2.20;0.60;;;;;;;1.51;90.85;100991.59;5097563;27;99362;-27
2023/12/04 04:44:34;;;;;;;1.63;1.35;;;;;;;1.55;90.81;100992.38;5097829;27;97295;-27
2023/12/04 04:47:00;;;;;;;1.40;0.63;;;;;;;1.54;89.92;100988.84;5097729;27;96563;-27
2023/12/04 04:49:25;;;;;;;2.58;1.95;;;;;;;1.56;89.76;100976.34;5098066;27;96868;-27
2023/12/04 04:51:51;;;;;;;0.25;0.25;;;;;;;1.63;89.75;100982.44;5097193;27;97494;-27
2023/12/04 04:54:16;;;;;;;1.90;1.10;;;;;;;1.65;90.63;100989.50;5079006;27;100971;-27
2023/12/04 04:56:41;;;;;;;0.88;0.80;;;;;;;1.62;91.36;100976.22;5097531;27;96633;-27
2023/12/04 04:59:07;;;;;;;0.10;0.10;;;;;;;1.65;91.44;100978.81;5097988;27;96901;-27
2023/12/04 05:01:32;;;;;;;1.20;0.65;;;;;;;1.63;90.63;100967.28;5097486;27;97869;-27
2023/12/04 05:03:57;;;;;;;0.85;0.80;;;;;;;1.61;91.65;100968.22;5097174;27;99206;-27
2023/12/04 05:06:23;;;;;;;0.65;0.40;;;;;;;1.58;91.92;100953.16;5097652;27;96679;-27
2023/12/04 05:08:50;;;;;;;5.90;1.13;;;;;;;1.59;91.99;100968.25;5097725;27;96758;-27
2023/12/04 05:11:15;;;;;;;0.63;0.60;;;;;;;1.53;91.95;100947.06;5078795;27;100990;-27
2023/12/04 05:13:41;;;;;;;0.57;0.45;;;;;;;1.56;91.57;100952.31;5097792;27;97910;-27
2023/12/04 05:16:06;;;;;;;0.40;0.35;;;;;;;1.54;92.53;100942.59;5097815;27;96684;-27
2023/12/04 05:18:32;;;;;;;2.15;1.02;;;;;;;1.56;92.09;100941.63;5097463;27;96808;-27
2023/12/04 05:20:57;;;;;;;0.75;0.75;;;;;;;1.45;93.10;100922.31;5077615;27;98243;-27
2023/12/04 05:23:22;;;;;;;0.73;0.47;;;;;;;1.58;92.33;100944.28;5096259;27;98543;-27
2023/12/04 05:25:48;;;;;;;2.50;1.17;;;;;;;1.54;91.82;100921.22;5097652;27;96623;-28
2023/12/04 05:28:13;;;;;;;0.57;0.45;;;;;;;1.57;91.34;100927.38;5096516;27;96925;-27
2023/12/04 05:30:38;;;;;;;0.38;0.38;;;;;;;1.59;92.61;100928.22;5096724;27;98842;-27
2023/12/04 05:33:04;;;;;;;0.30;0.30;;;;;;;1.57;92.47;100921.16;5097095;27;97782;-29
2023/12/04 05:35:32;;;;;;;0.90;0.90;;;;;;;1.54;92.78;100913.22;5097158;27;96597;-27
2023/12/04 05:37:58;;;;;;;1.00;0.50;;;;;;;1.62;92.91;100925.50;5097618;27;96702;-27
2023/12/04 05:40:23;;;;;;;8.85;1.38;;;;;;;1.52;92.07;100907.91;5096571;27;99010;-27
2023/12/04 05:42:48;;;;;;;0.60;0.50;;;;;;;1.62;92.08;100925.50;5096072;27;97537;-28
2023/12/04 05:45:14;;;;;;;0.57;0.52;;;;;;;1.68;92.17;100935.13;5093718;27;97031;-27
2023/12/04 05:47:39;;;;;;;0.85;0.20;;;;;;;1.67;92.46;100926.25;5094584;27;96929;-28
2023/12/04 05:50:05;;;;;;;1.20;0.57;;;;;;;1.68;92.70;100925.34;5094115;27;99604;-28
2023/12/04 05:52:30;;;;;;;1.38;0.73;;;;;;;1.70;92.14;100930.66;5093141;27;98023;-29
2023/12/04 05:54:55;;;;;;;0.65;0.65;;;;;;;1.74;92.36;100932.34;5094680;27;96580;-28
2023/12/04 05:57:21;;;;;;;0.40;0.40;;;;;;;1.68;92.13;100920.00;5094766;27;97008;-32
2023/12/04 05:59:46;;;;;;;0.75;0.75;;;;;;;1.67;91.88;100918.25;5096233;27;97864;-27
2023/12/04 06:02:12;;;;;;;1.10;0.93;;;;;;;1.70;92.61;100920.84;5096704;27;99295;-27
2023/12/04 06:04:38;;;;;;;1.63;1.38;;;;;;;1.74;92.94;100918.09;5096587;27;96682;-27
2023/12/04 06:07:03;;;;;;;1.30;1.13;;;;;;;1.73;92.45;100913.66;5096960;27;96720;-27
2023/12/04 06:09:28;;;;;;;1.40;0.52;;;;;;;1.76;92.15;100910.91;5077268;27;99948;-27
2023/12/04 06:11:54;;;;;;;1.02;0.85;;;;;;;1.76;92.28;100905.56;5096204;27;99059;-27
2023/12/04 06:14:19;;;;;;;1.05;0.90;;;;;;;1.76;92.72;100901.09;5096301;27;96474;-27
2023/12/04 06:16:44;;;;;;;1.35;0.75;;;;;;;1.76;92.46;100901.09;5096616;27;96762;-29
2023/12/04 06:19:10;;;;;;;0.82;0.50;;;;;;;1.76;91.54;100898.44;5096032;27;97895;-28
2023/12/04 06:21:35;;;;;;;0.00;0.00;;;;;;;1.78;91.50;100903.75;5096106;27;97757;-27
2023/12/04 06:24:01;;;;;;;1.02;0.57;;;;;;;1.71;91.25;100889.66;5096479;27;96582;-27
2023/12/04 06:26:26;;;;;;;3.22;0.45;;;;;;;1.75;91.81;100888.69;5078369;27;96791;-27
2023/12/04 06:28:52;;;;;;;0.20;0.20;;;;;;;1.76;92.50;100885.09;5096209;27;97530;-28
2023/12/04 06:31:18;;;;;;;1.45;0.70;;;;;;;1.78;93.27;100880.59;5096220;27;100000;-27
2023/12/04 06:33:43;;;;;;;0.80;0.80;;;;;;;1.73;92.83;100873.63;5095545;27;96628;-27
2023/12/04 06:36:11;;;;;;;1.15;1.05;;;;;;;1.78;92.01;100871.72;5096070;27;96754;-27
2023/12/04 06:38:40;;;;;;;3.83;1.20;;;;;;;1.67;90.23;100862.19;5077328;27;102419;-27
2023/12/04 06:41:06;;;;;;;1.33;1.02;;;;;;;1.80;91.50;100873.41;5095821;27;97266;-27
2023/12/04 06:43:32;;;;;;;0.68;0.68;;;;;;;1.80;91.22;100870.75;5077519;27;96671;-27
2023/12/04 06:45:58;;;;;;;0.38;0.38;;;;;;;1.80;91.65;100864.53;5077455;27;96856;-27
2023/12/04 06:48:24;;;;;;;0.30;0.30;;;;;;;1.83;91.21;100853.78;5095717;27;97839;-27
2023/12/04 06:50:50;;;;;;;1.27;0.80;;;;;;;1.82;91.05;100860.91;5077421;27;101012;-27
2023/12/04 06:53:15;;;;;;;1.00;0.65;;;;;;;1.87;91.11;100872.34;5094983;27;96687;-28
2023/12/04 06:55:40;;;;;;;0.32;0.32;;;;;;;1.86;90.70;100861.69;5096178;27;96710;-28
2023/12/04 06:58:06;;;;;;;0.93;0.40;;;;;;;1.89;91.49;100869.66;5096901;27;97866;-28
2023/12/04 07:00:31;;;;;;;0.73;0.60;;;;;;;1.89;90.67;100870.53;5099435;27;97198;-27
2023/12/04 07:02:56;;;;;;;1.48;1.13;;;;;;;1.89;91.15;100864.31;5099646;27;96594;-27
2023/12/04 07:05:22;;;;;;;1.20;0.95;;;;;;;1.90;91.27;100864.25;5099494;27;96755;-27
2023/12/04 07:07:47;;;;;;;1.10;0.88;;;;;;;1.91;91.18;100857.13;5099432;27;97828;-27
2023/12/04 07:10:14;;;;;;;0.90;0.50;;;;;;;1.87;90.63;100845.66;5099155;27;98660;-27
2023/12/04 07:12:44;;;;;;;1.17;0.32;;;;;;;1.90;90.71;100853.56;5080849;27;96569;-27
2023/12/04 07:15:10;;;;;;;0.65;0.65;;;;;;;1.90;89.68;100845.56;5099750;27;96743;-27
2023/12/04 07:17:36;;;;;;;0.30;0.30;;;;;;;1.92;90.34;100841.06;5080193;27;101049;-27
2023/12/04 07:20:02;;;;;;;2.45;1.38;;;;;;;1.89;89.93;100841.16;5099236;27;97783;-27
2023/12/04 07:22:27;;;;;;;3.78;1.83;;;;;;;1.97;90.61;100842.75;5098801;27;96675;-27
2023/12/04 07:24:52;;;;;;;0.70;0.65;;;;;;;1.96;90.37;100836.53;5099325;27;96733;-28
2023/12/04 07:27:18;;;;;;;0.57;0.35;;;;;;;1.97;89.66;100832.91;5098640;27;99246;-27
2023/12/04 07:29:43;;;;;;;0.55;0.55;;;;;;;1.96;89.68;100828.50;5099048;27;97318;-27
2023/12/04 07:32:08;;;;;;;0.80;0.50;;;;;;;1.98;89.62;100836.47;5099179;27;96703;-27
2023/12/04 07:34:34;;;;;;;0.50;0.47;;;;;;;1.95;88.12;100826.75;5099097;27;96798;-27
2023/12/04 07:36:59;;;;;;;1.77;0.77;;;;;;;1.94;89.24;100817.00;5098620;27;99231;-27
2023/12/04 07:39:24;;;;;;;0.57;0.57;;;;;;;1.98;88.32;100821.34;5099079;27;98233;-27
2023/12/04 07:41:50;;;;;;;3.20;1.75;;;;;;;2.00;87.69;100816.84;5098870;27;97724;-29
2023/12/04 07:44:15;;;;;;;0.68;0.50;;;;;;;2.01;88.08;100812.38;5098728;27;96805;-27
2023/12/04 07:46:41;;;;;;;0.22;0.22;;;;;;;1.99;88.69;100823.09;5098074;27;98047;-27
2023/12/04 07:49:06;;;;;;;1.15;0.90;;;;;;;1.96;88.95;100809.81;5098634;27;97259;-27
2023/12/04 07:51:32;;;;;;;1.08;0.38;;;;;;;2.01;87.78;100812.38;5098958;27;96472;-27
2023/12/04 07:53:57;;;;;;;0.03;0.03;;;;;;;2.01;87.65;100809.69;5097439;27;96719;-27
2023/12/04 07:56:23;;;;;;;2.53;0.85;;;;;;;1.98;89.18;100832.03;5078924;27;99313;-28
2023/12/04 07:58:48;;;;;;;1.13;0.63;;;;;;;2.02;88.53;100846.16;5097367;27;97293;-28
2023/12/04 08:01:14;;;;;;;2.65;0.88;;;;;;;2.01;87.49;100837.28;5097635;27;96577;-28
2023/12/04 08:03:40;;;;;;;2.05;1.20;;;;;;;2.06;87.26;100846.03;5079237;27;96873;-28
2023/12/04 08:06:05;;;;;;;0.80;0.55;;;;;;;2.10;87.86;100841.50;5097252;27;97866;-28
2023/12/04 08:08:31;;;;;;;1.05;0.98;;;;;;;2.05;87.67;100833.63;5096787;27;97756;-27
2023/12/04 08:10:57;;;;;;;0.90;0.55;;;;;;;2.09;85.74;100839.75;5078670;27;96528;-27
2023/12/04 08:13:22;;;;;;;2.33;1.13;;;;;;;2.10;85.85;100831.69;5097093;27;96792;-27
2023/12/04 08:15:48;;;;;;;0.32;0.32;;;;;;;2.10;86.24;100829.03;5078665;27;97338;-28
2023/12/04 08:18:13;;;;;;;0.55;0.45;;;;;;;2.06;85.19;100813.13;5096740;27;97776;-28
2023/12/04 08:20:38;;;;;;;1.48;0.65;;;;;;;2.08;85.48;100820.16;5097363;27;96441;-27
2023/12/04 08:23:04;;;;;;;2.55;1.08;;;;;;;2.11;84.85;100812.06;5096950;27;96712;-27
2023/12/04 08:25:29;;;;;;;2.60;1.55;;;;;;;2.12;85.14;100823.63;5096656;27;99310;-28
2023/12/04 08:27:55;;;;;;;0.43;0.38;;;;;;;2.09;84.13;100805.88;5097292;27;97818;-26
2023/12/04 08:30:20;;;;;;;1.88;1.10;;;;;;;2.08;84.67;100801.47;5097050;27;96600;-27
2023/12/04 08:32:47;;;;;;;1.17;0.50;;;;;;;2.09;85.28;100797.00;5096811;27;96814;-27
2023/12/04 08:35:12;;;;;;;0.50;0.50;;;;;;;2.15;85.19;100799.50;5096069;27;99315;-27
2023/12/04 08:37:37;;;;;;;3.25;1.83;;;;;;;2.13;86.42;100794.19;5096572;27;97350;-28
2023/12/04 08:40:03;;;;;;;4.57;0.80;;;;;;;2.10;83.99;100786.28;5096802;27;96620;-27
2023/12/04 08:42:29;;;;;;;0.68;0.63;;;;;;;2.11;85.90;100785.34;5096856;27;96748;-28
2023/12/04 08:44:54;;;;;;;1.85;0.85;;;;;;;2.12;86.02;100789.78;5077716;27;100980;-28
2023/12/04 08:47:20;;;;;;;0.25;0.25;;;;;;;2.10;84.31;100786.28;5096503;27;97763;-27
2023/12/04 08:49:46;;;;;;;1.23;0.90;;;;;;;2.10;85.19;100770.25;5096595;27;96527;-27
2023/12/04 08:52:12;;;;;;;1.63;1.52;;;;;;;2.16;84.85;100787.03;5054779;27;1167662;-28
2023/12/04 08:54:41;;;;;;;0.85;0.85;;;;;;;2.14;84.26;100773.69;5097290;27;99317;-27
2023/12/04 08:57:07;;;;;;;1.15;0.47;;;;;;;2.14;84.71;100773.69;5078867;27;100854;-27
2023/12/04 08:59:32;;;;;;;1.17;0.57;;;;;;;2.10;84.29;100764.91;5097330;27;96432;-28
2023/12/04 09:01:57;;;;;;;1.65;1.17;;;;;;;2.15;84.48;100769.25;5097484;27;96775;-27
2023/12/04 09:04:23;;;;;;;0.32;0.32;;;;;;;2.15;85.31;100762.09;5097209;27;99157;-28
2023/12/04 09:06:48;;;;;;;4.00;0.65;;;;;;;2.18;85.18;100770.03;5097155;27;98693;-27
2023/12/04 09:09:15;;;;;;;1.15;0.82;;;;;;;2.18;84.50;100767.34;5097680;27;96601;-28
2023/12/04 09:11:44;;;;;;;1.85;1.15;;;;;;;2.11;85.00;100752.41;5078909;27;96943;-27
2023/12/04 09:14:10;;;;;;;8.93;1.35;;;;;;;2.17;84.68;100767.38;5096972;27;98101;-27
2023/12/04 09:16:35;;;;;;;1.80;1.23;;;;;;;2.19;84.56;100760.19;5078888;27;100949;-27
2023/12/04 09:19:00;;;;;;;0.98;0.57;;;;;;;2.18;83.83;100761.13;5097225;27;96571;-27
2023/12/04 09:21:26;;;;;;;0.85;0.75;;;;;;;2.24;84.78;100771.63;5096046;27;96822;-27
2023/12/04 09:23:52;;;;;;;2.28;1.27;;;;;;;2.20;84.99;100753.97;5077845;27;99470;-28
2023/12/04 09:26:18;;;;;;;1.42;1.15;;;;;;;2.27;84.90;100772.44;5096870;27;99167;-27
2023/12/04 09:28:43;;;;;;;1.00;0.88;;;;;;;2.27;85.17;100769.75;5097088;27;96460;-27
2023/12/04 09:31:09;;;;;;;3.63;1.23;;;;;;;2.25;85.40;100770.72;5097083;27;97052;-27
2023/12/04 09:33:35;;;;;;;0.95;0.77;;;;;;;2.30;84.80;100777.69;5096926;27;97931;-27
2023/12/04 09:36:01;;;;;;;1.05;0.85;;;;;;;2.32;85.60;100762.47;5096662;27;99553;-27
2023/12/04 09:38:26;;;;;;;2.22;0.77;;;;;;;2.30;86.16;100752.75;5097204;27;96458;-28
2023/12/04 09:40:53;;;;;;;1.17;0.52;;;;;;;2.30;85.26;100750.97;5097441;27;96793;-27
2023/12/04 09:43:18;;;;;;;0.15;0.15;;;;;;;2.30;84.01;100748.28;5078074;27;101022;-28
2023/12/04 09:45:44;;;;;;;0.40;0.40;;;;;;;2.28;84.63;100750.13;5096677;27;97780;-27
2023/12/04 09:48:10;;;;;;;1.00;0.50;;;;;;;2.36;84.22;100765.06;5096579;27;96470;-27
2023/12/04 09:50:36;;;;;;;1.85;1.20;;;;;;;2.27;83.62;100743.03;5096779;27;96762;-27
2023/12/04 09:53:02;;;;;;;0.55;0.55;;;;;;;2.38;83.53;100752.53;5077221;27;100718;-27
2023/12/04 09:55:28;;;;;;;0.95;0.77;;;;;;;2.36;83.15;100739.22;5077834;27;101461;-28
2023/12/04 09:57:54;;;;;;;1.55;1.05;;;;;;;2.42;83.58;100740.84;5096919;27;96478;-27
2023/12/04 10:00:21;;;;;;;0.98;0.90;;;;;;;2.39;83.47;100732.91;5078175;27;96818;-27
2023/12/04 10:02:47;;;;;;;0.63;0.57;;;;;;;2.40;83.13;100727.50;5077788;27;101508;-27
2023/12/04 10:05:13;;;;;;;0.85;0.82;;;;;;;2.46;83.62;100729.16;5078036;27;99297;-28
2023/12/04 10:07:39;;;;;;;2.20;1.17;;;;;;;2.47;82.58;100729.06;5077965;27;96563;-27
2023/12/04 10:10:08;;;;;;;1.63;0.88;;;;;;;2.48;83.03;100728.16;5096537;27;96811;-27
2023/12/04 10:12:35;;;;;;;0.40;0.40;;;;;;;2.49;81.68;100719.22;5075907;27;101494;-27
2023/12/04 10:15:08;;;;;;;3.22;0.82;;;;;;;2.47;83.14;100713.03;5077501;27;101221;-27
2023/12/04 10:17:38;;;;;;;0.60;0.38;;;;;;;2.56;83.16;100717.25;5096352;27;96595;-27
2023/12/04 10:20:11;;;;;;;0.63;0.55;;;;;;;2.52;82.00;100703.06;5077911;27;96888;-28
2023/12/04 10:22:38;;;;;;;0.85;0.70;;;;;;;2.54;82.09;100695.00;5096106;27;97987;-27
2023/12/04 10:25:25;;;;;;;0.25;0.22;;;;;;;2.60;81.20;100688.59;5077132;27;101051;-27
2023/12/04 10:27:51;;;;;;;0.73;0.73;;;;;;;2.54;82.15;100682.53;5077569;27;96543;-27
2023/12/04 10:30:24;;;;;;;0.28;0.28;;;;;;;2.60;82.38;100681.47;5078168;27;96813;-27
2023/12/04 10:32:54;;;;;;;1.45;0.95;;;;;;;2.59;81.89;100674.34;5077124;27;101018;-27
2023/12/04 10:35:19;;;;;;;1.40;0.63;;;;;;;2.66;83.14;100675.03;5077392;27;100928;-28
2023/12/04 10:37:45;;;;;;;0.40;0.35;;;;;;;2.63;82.01;100659.97;5095575;27;96556;-27
2023/12/04 10:40:10;;;;;;;0.55;0.45;;;;;;;2.63;82.72;100659.97;5096234;27;96790;-27
2023/12/04 10:42:36;;;;;;;0.40;0.40;;;;;;;2.61;81.87;100643.09;5095938;27;97897;-27
2023/12/04 10:45:01;;;;;;;0.88;0.77;;;;;;;2.63;81.76;100640.38;5095638;27;99236;-27
2023/12/04 10:47:29;;;;;;;1.25;1.00;;;;;;;2.72;82.18;100650.78;5096019;27;96559;-27
2023/12/04 10:49:55;;;;;;;1.30;1.15;;;;;;;2.74;81.52;100651.59;5077096;27;96847;-29
2023/12/04 10:52:21;;;;;;;1.75;0.82;;;;;;;2.73;82.52;100639.16;5076348;27;101405;-27
2023/12/04 10:54:47;;;;;;;0.98;0.80;;;;;;;2.80;81.58;100646.06;5077415;27;100745;-27
2023/12/04 10:57:36;;;;;;;1.70;1.13;;;;;;;2.81;82.85;100629.06;5077242;27;96577;-28
2023/12/04 11:00:05;;;;;;;0.73;0.65;;;;;;;2.85;81.92;100632.53;5095403;27;96808;-28
2023/12/04 11:02:33;;;;;;;1.08;0.95;;;;;;;2.78;83.00;100623.84;5076210;27;101347;-27
2023/12/04 11:05:13;;;;;;;0.45;0.17;;;;;;;2.86;81.80;100639.63;5076783;27;101124;-27
2023/12/04 11:07:44;;;;;;;0.20;0.17;;;;;;;2.85;82.71;100627.19;5096111;27;96583;-28
2023/12/04 11:10:11;;;;;;;1.50;1.00;;;;;;;2.89;83.17;100626.16;5077275;27;96825;-28
2023/12/04 11:12:44;;;;;;;1.40;0.88;;;;;;;2.91;82.57;100627.84;5095561;27;97459;-29
2023/12/04 11:15:13;;;;;;;1.00;0.95;;;;;;;2.95;82.97;100636.63;5076633;27;100858;-28
2023/12/04 11:17:43;;;;;;;0.95;0.90;;;;;;;2.96;82.60;100633.06;5077195;27;96634;-27
2023/12/04 11:20:13;;;;;;;0.80;0.80;;;;;;;2.94;82.92;100622.41;5077379;27;96861;-27
2023/12/04 11:22:40;;;;;;;1.63;1.20;;;;;;;2.96;82.97;100623.22;5076537;27;100882;-28